sensor_id;sensor_type;location;lat;lon;timestamp;temperature;humidity
79698;SHT31;69168;42.708;23.286;2023-05-07T00:00:09;12.79;66.19
79698;SHT31;69168;42.708;23.286;2023-05-07T00:02:35;12.80;65.67
79698;SHT31;69168;42.708;23.286;2023-05-07T00:05:01;12.74;64.89
79698;SHT31;69168;42.708;23.286;2023-05-07T00:07:28;12.63;65.16
79698;SHT31;69168;42.708;23.286;2023-05-07T00:09:53;12.53;65.75
79698;SHT31;69168;42.708;23.286;2023-05-07T00:12:18;12.49;66.08
79698;SHT31;69168;42.708;23.286;2023-05-07T00:14:44;12.50;66.29
79698;SHT31;69168;42.708;23.286;2023-05-07T00:17:10;12.59;66.28
79698;SHT31;69168;42.708;23.286;2023-05-07T00:19:36;12.57;66.51
79698;SHT31;69168;42.708;23.286;2023-05-07T00:22:01;12.59;66.47
79698;SHT31;69168;42.708;23.286;2023-05-07T00:24:27;12.63;66.61
79698;SHT31;69168;42.708;23.286;2023-05-07T00:26:52;12.55;66.99
79698;SHT31;69168;42.708;23.286;2023-05-07T00:29:18;12.49;67.05
79698;SHT31;69168;42.708;23.286;2023-05-07T00:31:43;12.53;66.86
79698;SHT31;69168;42.708;23.286;2023-05-07T00:34:09;12.52;67.13
79698;SHT31;69168;42.708;23.286;2023-05-07T00:36:34;12.53;66.76
79698;SHT31;69168;42.708;23.286;2023-05-07T00:39:02;12.53;67.02
79698;SHT31;69168;42.708;23.286;2023-05-07T00:41:29;12.50;66.89
79698;SHT31;69168;42.708;23.286;2023-05-07T00:43:55;12.45;66.81
79698;SHT31;69168;42.708;23.286;2023-05-07T00:46:22;12.45;67.23
79698;SHT31;69168;42.708;23.286;2023-05-07T00:48:48;12.40;67.32
79698;SHT31;69168;42.708;23.286;2023-05-07T00:51:15;12.36;66.98
79698;SHT31;69168;42.708;23.286;2023-05-07T00:53:40;12.39;66.77
79698;SHT31;69168;42.708;23.286;2023-05-07T00:56:06;12.36;66.96
79698;SHT31;69168;42.708;23.286;2023-05-07T00:58:33;12.32;67.28
79698;SHT31;69168;42.708;23.286;2023-05-07T01:00:59;12.28;67.18
79698;SHT31;69168;42.708;23.286;2023-05-07T01:03:25;12.22;67.17
79698;SHT31;69168;42.708;23.286;2023-05-07T01:05:52;12.22;66.98
79698;SHT31;69168;42.708;23.286;2023-05-07T01:08:18;12.19;67.17
79698;SHT31;69168;42.708;23.286;2023-05-07T01:10:44;12.11;67.88
79698;SHT31;69168;42.708;23.286;2023-05-07T01:13:11;12.15;67.75
79698;SHT31;69168;42.708;23.286;2023-05-07T01:15:37;12.11;67.59
79698;SHT31;69168;42.708;23.286;2023-05-07T01:18:03;12.09;67.42
79698;SHT31;69168;42.708;23.286;2023-05-07T01:20:29;12.06;67.48
79698;SHT31;69168;42.708;23.286;2023-05-07T01:22:55;12.02;67.49
79698;SHT31;69168;42.708;23.286;2023-05-07T01:25:21;11.98;67.53
79698;SHT31;69168;42.708;23.286;2023-05-07T01:27:47;11.99;67.51
79698;SHT31;69168;42.708;23.286;2023-05-07T01:30:12;11.99;67.32
79698;SHT31;69168;42.708;23.286;2023-05-07T01:32:58;11.94;67.44
79698;SHT31;69168;42.708;23.286;2023-05-07T01:35:30;11.92;67.77
79698;SHT31;69168;42.708;23.286;2023-05-07T01:37:57;11.91;67.44
79698;SHT31;69168;42.708;23.286;2023-05-07T01:40:24;11.90;68.08
79698;SHT31;69168;42.708;23.286;2023-05-07T01:42:50;11.83;68.29
79698;SHT31;69168;42.708;23.286;2023-05-07T01:45:16;11.75;68.56
79698;SHT31;69168;42.708;23.286;2023-05-07T01:47:42;11.88;68.20
79698;SHT31;69168;42.708;23.286;2023-05-07T01:50:09;11.73;68.50
79698;SHT31;69168;42.708;23.286;2023-05-07T01:52:37;11.71;68.64
79698;SHT31;69168;42.708;23.286;2023-05-07T01:55:03;11.75;68.41
79698;SHT31;69168;42.708;23.286;2023-05-07T01:57:28;11.66;68.59
79698;SHT31;69168;42.708;23.286;2023-05-07T01:59:54;11.40;69.27
79698;SHT31;69168;42.708;23.286;2023-05-07T02:02:19;11.47;69.07
79698;SHT31;69168;42.708;23.286;2023-05-07T02:04:45;11.43;69.00
79698;SHT31;69168;42.708;23.286;2023-05-07T02:07:10;11.33;69.80
79698;SHT31;69168;42.708;23.286;2023-05-07T02:09:36;11.20;70.35
79698;SHT31;69168;42.708;23.286;2023-05-07T02:12:01;11.19;70.31
79698;SHT31;69168;42.708;23.286;2023-05-07T02:14:27;11.16;70.53
79698;SHT31;69168;42.708;23.286;2023-05-07T02:16:52;11.18;70.30
79698;SHT31;69168;42.708;23.286;2023-05-07T02:19:18;11.18;70.50
79698;SHT31;69168;42.708;23.286;2023-05-07T02:21:46;11.19;70.54
79698;SHT31;69168;42.708;23.286;2023-05-07T02:24:12;11.15;70.61
79698;SHT31;69168;42.708;23.286;2023-05-07T02:26:37;11.20;70.33
79698;SHT31;69168;42.708;23.286;2023-05-07T02:29:02;11.19;70.28
79698;SHT31;69168;42.708;23.286;2023-05-07T02:31:28;11.09;70.74
79698;SHT31;69168;42.708;23.286;2023-05-07T02:33:53;11.22;70.55
79698;SHT31;69168;42.708;23.286;2023-05-07T02:36:19;11.11;70.86
79698;SHT31;69168;42.708;23.286;2023-05-07T02:38:44;10.90;71.08
79698;SHT31;69168;42.708;23.286;2023-05-07T02:41:09;10.60;71.73
79698;SHT31;69168;42.708;23.286;2023-05-07T02:43:36;10.53;72.00
79698;SHT31;69168;42.708;23.286;2023-05-07T02:46:05;10.73;71.73
79698;SHT31;69168;42.708;23.286;2023-05-07T02:48:30;10.78;71.30
79698;SHT31;69168;42.708;23.286;2023-05-07T02:50:56;10.82;70.92
79698;SHT31;69168;42.708;23.286;2023-05-07T02:53:22;10.63;71.56
79698;SHT31;69168;42.708;23.286;2023-05-07T02:55:47;10.71;71.19
79698;SHT31;69168;42.708;23.286;2023-05-07T02:58:13;10.74;70.66
79698;SHT31;69168;42.708;23.286;2023-05-07T03:00:38;10.73;71.06
79698;SHT31;69168;42.708;23.286;2023-05-07T03:03:03;10.64;71.46
79698;SHT31;69168;42.708;23.286;2023-05-07T03:05:29;10.75;70.61
79698;SHT31;69168;42.708;23.286;2023-05-07T03:07:54;10.74;70.56
79698;SHT31;69168;42.708;23.286;2023-05-07T03:10:20;10.84;70.74
79698;SHT31;69168;42.708;23.286;2023-05-07T03:12:45;10.81;70.89
79698;SHT31;69168;42.708;23.286;2023-05-07T03:15:11;10.82;70.63
79698;SHT31;69168;42.708;23.286;2023-05-07T03:17:39;10.73;70.59
79698;SHT31;69168;42.708;23.286;2023-05-07T03:20:05;10.70;70.86
79698;SHT31;69168;42.708;23.286;2023-05-07T03:22:30;10.54;71.44
79698;SHT31;69168;42.708;23.286;2023-05-07T03:24:56;10.61;71.40
79698;SHT31;69168;42.708;23.286;2023-05-07T03:27:21;10.56;71.39
79698;SHT31;69168;42.708;23.286;2023-05-07T03:29:47;10.54;71.28
79698;SHT31;69168;42.708;23.286;2023-05-07T03:32:13;10.57;70.90
79698;SHT31;69168;42.708;23.286;2023-05-07T03:34:39;10.19;72.16
79698;SHT31;69168;42.708;23.286;2023-05-07T03:37:05;10.28;72.04
79698;SHT31;69168;42.708;23.286;2023-05-07T03:39:30;10.49;71.38
79698;SHT31;69168;42.708;23.286;2023-05-07T03:41:57;10.29;71.54
79698;SHT31;69168;42.708;23.286;2023-05-07T03:44:23;9.98;72.59
79698;SHT31;69168;42.708;23.286;2023-05-07T03:46:48;9.90;72.87
79698;SHT31;69168;42.708;23.286;2023-05-07T03:49:14;9.97;72.65
79698;SHT31;69168;42.708;23.286;2023-05-07T03:51:39;9.71;73.34
79698;SHT31;69168;42.708;23.286;2023-05-07T03:54:05;10.01;72.47
79698;SHT31;69168;42.708;23.286;2023-05-07T03:56:30;10.08;72.50
79698;SHT31;69168;42.708;23.286;2023-05-07T03:58:56;10.02;72.79
79698;SHT31;69168;42.708;23.286;2023-05-07T04:01:21;9.95;73.14
79698;SHT31;69168;42.708;23.286;2023-05-07T04:03:50;9.94;73.14
79698;SHT31;69168;42.708;23.286;2023-05-07T04:06:16;9.84;73.72
79698;SHT31;69168;42.708;23.286;2023-05-07T04:08:44;9.64;74.52
79698;SHT31;69168;42.708;23.286;2023-05-07T04:11:10;9.67;74.57
79698;SHT31;69168;42.708;23.286;2023-05-07T04:13:35;9.90;73.86
79698;SHT31;69168;42.708;23.286;2023-05-07T04:16:02;10.10;73.46
79698;SHT31;69168;42.708;23.286;2023-05-07T04:18:28;10.28;72.63
79698;SHT31;69168;42.708;23.286;2023-05-07T04:20:54;10.15;72.96
79698;SHT31;69168;42.708;23.286;2023-05-07T04:23:19;10.03;73.44
79698;SHT31;69168;42.708;23.286;2023-05-07T04:25:45;10.12;73.46
79698;SHT31;69168;42.708;23.286;2023-05-07T04:28:11;10.26;73.14
79698;SHT31;69168;42.708;23.286;2023-05-07T04:30:37;10.33;72.90
79698;SHT31;69168;42.708;23.286;2023-05-07T04:33:02;10.32;73.10
79698;SHT31;69168;42.708;23.286;2023-05-07T04:35:27;10.45;73.06
79698;SHT31;69168;42.708;23.286;2023-05-07T04:37:53;10.37;73.39
79698;SHT31;69168;42.708;23.286;2023-05-07T04:40:18;10.19;74.23
79698;SHT31;69168;42.708;23.286;2023-05-07T04:42:44;10.35;73.74
79698;SHT31;69168;42.708;23.286;2023-05-07T04:45:09;10.26;74.22
79698;SHT31;69168;42.708;23.286;2023-05-07T04:47:35;10.40;74.03
79698;SHT31;69168;42.708;23.286;2023-05-07T04:50:01;10.50;73.60
79698;SHT31;69168;42.708;23.286;2023-05-07T04:52:27;10.59;73.29
79698;SHT31;69168;42.708;23.286;2023-05-07T04:54:52;10.73;72.90
79698;SHT31;69168;42.708;23.286;2023-05-07T04:57:18;10.67;73.23
79698;SHT31;69168;42.708;23.286;2023-05-07T04:59:44;10.74;73.11
79698;SHT31;69168;42.708;23.286;2023-05-07T05:02:12;10.92;72.75
79698;SHT31;69168;42.708;23.286;2023-05-07T05:04:38;11.04;72.32
79698;SHT31;69168;42.708;23.286;2023-05-07T05:07:03;11.04;72.63
79698;SHT31;69168;42.708;23.286;2023-05-07T05:09:29;11.18;72.15
79698;SHT31;69168;42.708;23.286;2023-05-07T05:11:55;11.28;71.92
79698;SHT31;69168;42.708;23.286;2023-05-07T05:14:21;11.42;71.67
79698;SHT31;69168;42.708;23.286;2023-05-07T05:16:46;11.44;71.83
79698;SHT31;69168;42.708;23.286;2023-05-07T05:19:11;11.42;71.88
79698;SHT31;69168;42.708;23.286;2023-05-07T05:21:37;11.59;71.76
79698;SHT31;69168;42.708;23.286;2023-05-07T05:24:02;11.59;71.66
79698;SHT31;69168;42.708;23.286;2023-05-07T05:26:28;11.63;71.73
79698;SHT31;69168;42.708;23.286;2023-05-07T05:28:53;11.74;71.41
79698;SHT31;69168;42.708;23.286;2023-05-07T05:31:19;11.87;71.24
79698;SHT31;69168;42.708;23.286;2023-05-07T05:33:44;11.90;71.12
79698;SHT31;69168;42.708;23.286;2023-05-07T05:36:10;11.99;71.01
79698;SHT31;69168;42.708;23.286;2023-05-07T05:38:36;12.05;70.95
79698;SHT31;69168;42.708;23.286;2023-05-07T05:41:01;12.22;70.33
79698;SHT31;69168;42.708;23.286;2023-05-07T05:43:27;12.29;70.24
79698;SHT31;69168;42.708;23.286;2023-05-07T05:45:52;12.43;69.92
79698;SHT31;69168;42.708;23.286;2023-05-07T05:48:18;12.52;69.76
79698;SHT31;69168;42.708;23.286;2023-05-07T05:50:43;12.53;69.77
79698;SHT31;69168;42.708;23.286;2023-05-07T05:53:08;12.60;69.90
79698;SHT31;69168;42.708;23.286;2023-05-07T05:55:34;12.64;69.86
79698;SHT31;69168;42.708;23.286;2023-05-07T05:58:02;12.74;69.57
79698;SHT31;69168;42.708;23.286;2023-05-07T06:00:28;12.81;69.55
79698;SHT31;69168;42.708;23.286;2023-05-07T06:02:54;12.90;69.48
79698;SHT31;69168;42.708;23.286;2023-05-07T06:05:20;13.02;69.47
79698;SHT31;69168;42.708;23.286;2023-05-07T06:07:45;13.02;69.20
79698;SHT31;69168;42.708;23.286;2023-05-07T06:10:11;13.11;69.08
79698;SHT31;69168;42.708;23.286;2023-05-07T06:12:36;13.18;68.85
79698;SHT31;69168;42.708;23.286;2023-05-07T06:15:02;13.21;68.79
79698;SHT31;69168;42.708;23.286;2023-05-07T06:17:27;13.26;68.64
79698;SHT31;69168;42.708;23.286;2023-05-07T06:19:53;13.45;68.23
79698;SHT31;69168;42.708;23.286;2023-05-07T06:22:18;13.48;68.15
79698;SHT31;69168;42.708;23.286;2023-05-07T06:24:44;13.59;67.91
79698;SHT31;69168;42.708;23.286;2023-05-07T06:27:10;13.57;67.80
79698;SHT31;69168;42.708;23.286;2023-05-07T06:29:35;13.57;67.86
79698;SHT31;69168;42.708;23.286;2023-05-07T06:32:11;13.77;66.66
79698;SHT31;69168;42.708;23.286;2023-05-07T06:34:37;13.69;66.88
79698;SHT31;69168;42.708;23.286;2023-05-07T06:37:03;13.70;66.83
79698;SHT31;69168;42.708;23.286;2023-05-07T06:39:28;13.73;66.84
79698;SHT31;69168;42.708;23.286;2023-05-07T06:41:54;13.94;65.55
79698;SHT31;69168;42.708;23.286;2023-05-07T06:44:19;13.90;64.96
79698;SHT31;69168;42.708;23.286;2023-05-07T06:46:45;14.01;65.30
79698;SHT31;69168;42.708;23.286;2023-05-07T06:49:12;14.21;63.95
79698;SHT31;69168;42.708;23.286;2023-05-07T06:51:37;14.26;63.23
79698;SHT31;69168;42.708;23.286;2023-05-07T06:54:03;14.11;63.58
79698;SHT31;69168;42.708;23.286;2023-05-07T06:56:30;14.08;63.52
79698;SHT31;69168;42.708;23.286;2023-05-07T06:58:55;14.15;63.87
79698;SHT31;69168;42.708;23.286;2023-05-07T07:01:21;14.35;63.49
79698;SHT31;69168;42.708;23.286;2023-05-07T07:03:46;14.28;63.68
79698;SHT31;69168;42.708;23.286;2023-05-07T07:06:12;14.21;64.12
79698;SHT31;69168;42.708;23.286;2023-05-07T07:08:38;14.25;64.26
79698;SHT31;69168;42.708;23.286;2023-05-07T07:11:04;14.26;64.61
79698;SHT31;69168;42.708;23.286;2023-05-07T07:13:30;14.32;65.13
79698;SHT31;69168;42.708;23.286;2023-05-07T07:15:55;14.50;64.63
79698;SHT31;69168;42.708;23.286;2023-05-07T07:18:21;14.49;64.50
79698;SHT31;69168;42.708;23.286;2023-05-07T07:20:46;14.55;64.15
79698;SHT31;69168;42.708;23.286;2023-05-07T07:23:12;14.53;64.14
79698;SHT31;69168;42.708;23.286;2023-05-07T07:25:37;14.57;63.54
79698;SHT31;69168;42.708;23.286;2023-05-07T07:28:02;14.62;63.84
79698;SHT31;69168;42.708;23.286;2023-05-07T07:30:28;14.67;63.64
79698;SHT31;69168;42.708;23.286;2023-05-07T07:32:54;14.69;63.35
79698;SHT31;69168;42.708;23.286;2023-05-07T07:35:20;14.81;62.47
79698;SHT31;69168;42.708;23.286;2023-05-07T07:37:46;14.79;62.48
79698;SHT31;69168;42.708;23.286;2023-05-07T07:40:12;14.83;62.69
79698;SHT31;69168;42.708;23.286;2023-05-07T07:42:37;14.91;63.05
79698;SHT31;69168;42.708;23.286;2023-05-07T07:45:03;15.04;63.28
79698;SHT31;69168;42.708;23.286;2023-05-07T07:47:29;15.17;63.01
79698;SHT31;69168;42.708;23.286;2023-05-07T07:49:55;15.31;62.14
79698;SHT31;69168;42.708;23.286;2023-05-07T07:52:20;15.38;59.92
79698;SHT31;69168;42.708;23.286;2023-05-07T07:54:46;15.49;60.06
79698;SHT31;69168;42.708;23.286;2023-05-07T07:57:11;15.52;60.45
79698;SHT31;69168;42.708;23.286;2023-05-07T07:59:37;15.48;60.85
79698;SHT31;69168;42.708;23.286;2023-05-07T08:02:02;15.58;61.64
79698;SHT31;69168;42.708;23.286;2023-05-07T08:04:27;15.80;61.56
79698;SHT31;69168;42.708;23.286;2023-05-07T08:06:53;15.76;60.79
79698;SHT31;69168;42.708;23.286;2023-05-07T08:09:19;15.82;61.08
79698;SHT31;69168;42.708;23.286;2023-05-07T08:11:45;15.87;59.97
79698;SHT31;69168;42.708;23.286;2023-05-07T08:14:11;16.00;59.58
79698;SHT31;69168;42.708;23.286;2023-05-07T08:16:36;16.07;58.85
79698;SHT31;69168;42.708;23.286;2023-05-07T08:19:02;16.08;59.74
79698;SHT31;69168;42.708;23.286;2023-05-07T08:21:27;16.14;58.99
79698;SHT31;69168;42.708;23.286;2023-05-07T08:23:53;16.20;58.94
79698;SHT31;69168;42.708;23.286;2023-05-07T08:26:18;16.17;58.59
79698;SHT31;69168;42.708;23.286;2023-05-07T08:28:44;16.15;56.97
79698;SHT31;69168;42.708;23.286;2023-05-07T08:31:09;16.14;57.04
79698;SHT31;69168;42.708;23.286;2023-05-07T08:33:35;16.21;57.93
79698;SHT31;69168;42.708;23.286;2023-05-07T08:36:00;16.28;57.15
79698;SHT31;69168;42.708;23.286;2023-05-07T08:38:26;16.35;57.22
79698;SHT31;69168;42.708;23.286;2023-05-07T08:40:52;16.49;56.33
79698;SHT31;69168;42.708;23.286;2023-05-07T08:43:18;16.53;56.69
79698;SHT31;69168;42.708;23.286;2023-05-07T08:45:45;16.65;57.11
79698;SHT31;69168;42.708;23.286;2023-05-07T08:48:15;16.72;56.73
79698;SHT31;69168;42.708;23.286;2023-05-07T08:50:41;16.96;51.64
79698;SHT31;69168;42.708;23.286;2023-05-07T08:53:06;16.88;52.05
79698;SHT31;69168;42.708;23.286;2023-05-07T08:55:32;16.99;52.75
79698;SHT31;69168;42.708;23.286;2023-05-07T08:57:58;17.00;53.25
79698;SHT31;69168;42.708;23.286;2023-05-07T09:00:24;17.04;52.42
79698;SHT31;69168;42.708;23.286;2023-05-07T09:02:50;17.08;53.50
79698;SHT31;69168;42.708;23.286;2023-05-07T09:05:15;17.17;53.89
79698;SHT31;69168;42.708;23.286;2023-05-07T09:07:41;17.23;53.87
79698;SHT31;69168;42.708;23.286;2023-05-07T09:10:07;17.32;54.62
79698;SHT31;69168;42.708;23.286;2023-05-07T09:12:32;17.70;51.95
79698;SHT31;69168;42.708;23.286;2023-05-07T09:15:00;17.73;51.66
79698;SHT31;69168;42.708;23.286;2023-05-07T09:17:26;17.68;52.09
79698;SHT31;69168;42.708;23.286;2023-05-07T09:19:52;17.86;51.23
79698;SHT31;69168;42.708;23.286;2023-05-07T09:22:18;17.69;51.42
79698;SHT31;69168;42.708;23.286;2023-05-07T09:24:50;17.68;51.36
79698;SHT31;69168;42.708;23.286;2023-05-07T09:27:17;17.72;52.17
79698;SHT31;69168;42.708;23.286;2023-05-07T09:29:43;18.00;50.07
79698;SHT31;69168;42.708;23.286;2023-05-07T09:32:10;18.08;47.76
79698;SHT31;69168;42.708;23.286;2023-05-07T09:34:35;18.14;47.45
79698;SHT31;69168;42.708;23.286;2023-05-07T09:37:05;18.23;47.92
79698;SHT31;69168;42.708;23.286;2023-05-07T09:39:44;18.28;46.95
79698;SHT31;69168;42.708;23.286;2023-05-07T09:42:10;18.33;47.53
79698;SHT31;69168;42.708;23.286;2023-05-07T09:44:46;18.48;48.20
79698;SHT31;69168;42.708;23.286;2023-05-07T09:47:17;18.65;47.34
79698;SHT31;69168;42.708;23.286;2023-05-07T09:49:47;19.07;45.55
79698;SHT31;69168;42.708;23.286;2023-05-07T09:52:13;19.14;46.72
79698;SHT31;69168;42.708;23.286;2023-05-07T09:54:40;19.24;45.79
79698;SHT31;69168;42.708;23.286;2023-05-07T09:57:09;19.39;45.63
79698;SHT31;69168;42.708;23.286;2023-05-07T09:59:37;19.52;46.25
79698;SHT31;69168;42.708;23.286;2023-05-07T10:02:03;19.61;45.24
79698;SHT31;69168;42.708;23.286;2023-05-07T10:04:29;19.66;45.74
79698;SHT31;69168;42.708;23.286;2023-05-07T10:06:55;19.73;45.52
79698;SHT31;69168;42.708;23.286;2023-05-07T10:09:22;19.92;43.89
79698;SHT31;69168;42.708;23.286;2023-05-07T10:11:51;20.07;44.27
79698;SHT31;69168;42.708;23.286;2023-05-07T10:14:17;20.05;39.67
79698;SHT31;69168;42.708;23.286;2023-05-07T10:16:44;19.96;39.38
79698;SHT31;69168;42.708;23.286;2023-05-07T10:19:12;20.01;39.64
79698;SHT31;69168;42.708;23.286;2023-05-07T10:21:39;20.03;39.52
79698;SHT31;69168;42.708;23.286;2023-05-07T10:24:27;20.13;38.88
79698;SHT31;69168;42.708;23.286;2023-05-07T10:26:55;20.17;39.48
79698;SHT31;69168;42.708;23.286;2023-05-07T10:31:57;20.49;38.38
79698;SHT31;69168;42.708;23.286;2023-05-07T10:34:32;20.37;38.96
79698;SHT31;69168;42.708;23.286;2023-05-07T10:36:58;20.88;37.88
79698;SHT31;69168;42.708;23.286;2023-05-07T10:39:24;20.98;37.81
79698;SHT31;69168;42.708;23.286;2023-05-07T10:41:50;21.03;39.57
79698;SHT31;69168;42.708;23.286;2023-05-07T10:44:28;21.17;37.95
79698;SHT31;69168;42.708;23.286;2023-05-07T10:49:29;21.30;39.08
79698;SHT31;69168;42.708;23.286;2023-05-07T10:52:17;21.58;38.55
79698;SHT31;69168;42.708;23.286;2023-05-07T10:54:45;21.37;37.24
79698;SHT31;69168;42.708;23.286;2023-05-07T10:57:36;21.66;39.68
79698;SHT31;69168;42.708;23.286;2023-05-07T11:00:03;21.93;38.29
79698;SHT31;69168;42.708;23.286;2023-05-07T11:05:31;22.39;37.78
79698;SHT31;69168;42.708;23.286;2023-05-07T11:07:58;22.39;36.62
79698;SHT31;69168;42.708;23.286;2023-05-07T11:10:53;22.24;35.54
79698;SHT31;69168;42.708;23.286;2023-05-07T11:13:43;22.41;35.86
79698;SHT31;69168;42.708;23.286;2023-05-07T11:16:25;22.65;36.18
79698;SHT31;69168;42.708;23.286;2023-05-07T11:18:56;22.57;33.23
79698;SHT31;69168;42.708;23.286;2023-05-07T11:21:38;22.41;33.35
79698;SHT31;69168;42.708;23.286;2023-05-07T11:24:05;22.48;33.73
79698;SHT31;69168;42.708;23.286;2023-05-07T11:26:44;23.03;31.97
79698;SHT31;69168;42.708;23.286;2023-05-07T11:29:18;23.02;32.33
79698;SHT31;69168;42.708;23.286;2023-05-07T11:31:48;23.15;31.69
79698;SHT31;69168;42.708;23.286;2023-05-07T11:34:15;23.36;31.67
79698;SHT31;69168;42.708;23.286;2023-05-07T11:36:45;23.60;31.26
79698;SHT31;69168;42.708;23.286;2023-05-07T11:39:28;23.84;30.55
79698;SHT31;69168;42.708;23.286;2023-05-07T11:41:54;24.05;30.36
79698;SHT31;69168;42.708;23.286;2023-05-07T11:44:19;24.32;30.59
79698;SHT31;69168;42.708;23.286;2023-05-07T11:46:45;24.52;30.93
79698;SHT31;69168;42.708;23.286;2023-05-07T11:49:10;24.04;30.41
79698;SHT31;69168;42.708;23.286;2023-05-07T11:51:36;24.22;30.36
79698;SHT31;69168;42.708;23.286;2023-05-07T11:54:03;24.99;31.87
79698;SHT31;69168;42.708;23.286;2023-05-07T11:56:34;24.96;27.17
79698;SHT31;69168;42.708;23.286;2023-05-07T11:59:00;24.96;27.62
79698;SHT31;69168;42.708;23.286;2023-05-07T12:01:25;25.43;27.45
79698;SHT31;69168;42.708;23.286;2023-05-07T12:03:51;25.63;27.36
79698;SHT31;69168;42.708;23.286;2023-05-07T12:06:18;25.64;27.03
79698;SHT31;69168;42.708;23.286;2023-05-07T12:08:44;26.01;26.89
79698;SHT31;69168;42.708;23.286;2023-05-07T12:11:16;26.67;27.65
79698;SHT31;69168;42.708;23.286;2023-05-07T12:13:47;27.31;27.11
79698;SHT31;69168;42.708;23.286;2023-05-07T12:16:12;27.31;27.40
79698;SHT31;69168;42.708;23.286;2023-05-07T12:18:39;27.08;25.52
79698;SHT31;69168;42.708;23.286;2023-05-07T12:21:06;27.71;25.32
79698;SHT31;69168;42.708;23.286;2023-05-07T12:23:32;28.15;25.79
79698;SHT31;69168;42.708;23.286;2023-05-07T12:25:59;27.73;25.74
79698;SHT31;69168;42.708;23.286;2023-05-07T12:28:24;28.07;25.96
79698;SHT31;69168;42.708;23.286;2023-05-07T12:30:50;28.05;25.95
79698;SHT31;69168;42.708;23.286;2023-05-07T12:33:25;28.25;25.39
79698;SHT31;69168;42.708;23.286;2023-05-07T12:35:50;28.67;26.19
79698;SHT31;69168;42.708;23.286;2023-05-07T12:38:18;29.17;25.41
79698;SHT31;69168;42.708;23.286;2023-05-07T12:40:52;29.58;25.78
79698;SHT31;69168;42.708;23.286;2023-05-07T12:43:26;29.82;24.32
79698;SHT31;69168;42.708;23.286;2023-05-07T12:45:57;29.18;24.37
79698;SHT31;69168;42.708;23.286;2023-05-07T12:48:24;27.86;24.79
79698;SHT31;69168;42.708;23.286;2023-05-07T12:50:53;27.76;25.05
79698;SHT31;69168;42.708;23.286;2023-05-07T12:53:21;28.01;25.01
79698;SHT31;69168;42.708;23.286;2023-05-07T12:55:50;28.22;25.09
79698;SHT31;69168;42.708;23.286;2023-05-07T12:58:21;28.73;24.46
79698;SHT31;69168;42.708;23.286;2023-05-07T13:00:49;28.70;24.60
79698;SHT31;69168;42.708;23.286;2023-05-07T13:05:48;29.24;23.75
79698;SHT31;69168;42.708;23.286;2023-05-07T13:08:22;29.63;23.17
79698;SHT31;69168;42.708;23.286;2023-05-07T13:10:48;29.89;23.23
79698;SHT31;69168;42.708;23.286;2023-05-07T13:13:13;29.92;23.95
79698;SHT31;69168;42.708;23.286;2023-05-07T13:15:38;30.20;24.01
79698;SHT31;69168;42.708;23.286;2023-05-07T13:18:04;30.17;23.74
79698;SHT31;69168;42.708;23.286;2023-05-07T13:20:29;30.52;24.23
79698;SHT31;69168;42.708;23.286;2023-05-07T13:22:55;30.51;23.76
79698;SHT31;69168;42.708;23.286;2023-05-07T13:25:20;30.58;23.44
79698;SHT31;69168;42.708;23.286;2023-05-07T13:27:45;30.75;24.51
79698;SHT31;69168;42.708;23.286;2023-05-07T13:30:11;31.02;23.71
79698;SHT31;69168;42.708;23.286;2023-05-07T13:32:36;31.19;23.80
79698;SHT31;69168;42.708;23.286;2023-05-07T13:35:02;31.19;24.16
79698;SHT31;69168;42.708;23.286;2023-05-07T13:37:27;31.21;23.72
79698;SHT31;69168;42.708;23.286;2023-05-07T13:39:53;31.96;22.77
79698;SHT31;69168;42.708;23.286;2023-05-07T13:42:18;31.54;24.29
79698;SHT31;69168;42.708;23.286;2023-05-07T13:44:44;31.48;23.15
79698;SHT31;69168;42.708;23.286;2023-05-07T13:47:10;31.29;22.87
79698;SHT31;69168;42.708;23.286;2023-05-07T13:49:35;30.17;23.06
79698;SHT31;69168;42.708;23.286;2023-05-07T13:52:01;30.38;23.68
79698;SHT31;69168;42.708;23.286;2023-05-07T13:54:26;30.34;23.41
79698;SHT31;69168;42.708;23.286;2023-05-07T13:56:52;30.80;22.81
79698;SHT31;69168;42.708;23.286;2023-05-07T13:59:17;31.40;23.37
79698;SHT31;69168;42.708;23.286;2023-05-07T14:01:42;31.38;23.05
79698;SHT31;69168;42.708;23.286;2023-05-07T14:04:08;30.11;23.42
79698;SHT31;69168;42.708;23.286;2023-05-07T14:06:33;29.97;24.18
79698;SHT31;69168;42.708;23.286;2023-05-07T14:08:58;30.13;23.81
79698;SHT31;69168;42.708;23.286;2023-05-07T14:11:25;30.25;24.38
79698;SHT31;69168;42.708;23.286;2023-05-07T14:13:50;30.16;23.88
79698;SHT31;69168;42.708;23.286;2023-05-07T14:16:16;28.80;25.01
79698;SHT31;69168;42.708;23.286;2023-05-07T14:18:41;27.69;25.94
79698;SHT31;69168;42.708;23.286;2023-05-07T14:21:07;26.86;27.16
79698;SHT31;69168;42.708;23.286;2023-05-07T14:23:34;26.57;27.37
79698;SHT31;69168;42.708;23.286;2023-05-07T14:26:00;26.77;27.26
79698;SHT31;69168;42.708;23.286;2023-05-07T14:28:25;27.43;26.42
79698;SHT31;69168;42.708;23.286;2023-05-07T14:30:51;27.50;26.30
79698;SHT31;69168;42.708;23.286;2023-05-07T14:33:17;27.74;26.26
79698;SHT31;69168;42.708;23.286;2023-05-07T14:35:42;28.47;25.33
79698;SHT31;69168;42.708;23.286;2023-05-07T14:38:13;29.03;24.61
79698;SHT31;69168;42.708;23.286;2023-05-07T14:40:38;29.55;24.34
79698;SHT31;69168;42.708;23.286;2023-05-07T14:43:03;30.04;24.33
79698;SHT31;69168;42.708;23.286;2023-05-07T14:45:29;30.55;24.24
79698;SHT31;69168;42.708;23.286;2023-05-07T14:47:54;30.87;24.02
79698;SHT31;69168;42.708;23.286;2023-05-07T14:50:20;31.07;23.54
79698;SHT31;69168;42.708;23.286;2023-05-07T14:52:46;31.26;22.90
79698;SHT31;69168;42.708;23.286;2023-05-07T14:55:11;31.07;23.23
79698;SHT31;69168;42.708;23.286;2023-05-07T14:57:37;30.51;24.12
79698;SHT31;69168;42.708;23.286;2023-05-07T15:00:03;29.79;24.18
79698;SHT31;69168;42.708;23.286;2023-05-07T15:02:29;30.62;24.31
79698;SHT31;69168;42.708;23.286;2023-05-07T15:04:55;30.58;23.48
79698;SHT31;69168;42.708;23.286;2023-05-07T15:07:20;30.64;23.94
79698;SHT31;69168;42.708;23.286;2023-05-07T15:09:46;30.57;23.54
79698;SHT31;69168;42.708;23.286;2023-05-07T15:12:13;30.37;24.21
79698;SHT31;69168;42.708;23.286;2023-05-07T15:17:22;30.23;23.73
79698;SHT31;69168;42.708;23.286;2023-05-07T15:19:48;29.97;23.33
79698;SHT31;69168;42.708;23.286;2023-05-07T15:22:13;29.93;22.77
79698;SHT31;69168;42.708;23.286;2023-05-07T15:24:39;29.22;23.76
79698;SHT31;69168;42.708;23.286;2023-05-07T15:27:05;29.59;23.79